Pagrindinis puslapis
METAR-TAF:

METAR-TAF

Oro uostai :

Bakeu, Rumunija

platuma: 46-35N, ilguma: 026-58E, Aukštis: 184 m

Dabartinis oras

Ataskaita buvo paskelbta 15 minutes, ne 09:00 UTC
Vėjas 7 kt iš Šiaurės, svyruoja nuo Šiaurės/Šiaurės Vakarų ir Šiaurės/Šiaurės Rytų
Temperatūra 12°C
Drėgmė 47%
Slėgis 1027 hPa
Matomumas 10 km arba daugiau
nėra debesų žemiau 1500 m ir nėra kamuolinių lietaus debesų

METAR: LRBC 270900Z 36007KT 330V030 CAVOK 12/01 Q1027

Laikas: 12:15 (09:15 UTC)

Prognozė

Ataskaita buvo paskelbta 1 valandą ir 15 minutes, ne 08:00 UTC
Prognozė galioja nuo 27 metu 09 UTC su 27 metu 18 UTC
Vėjas 4 kt nuo kintamojo kryptimis
Matomumas 10 km arba daugiau
nėra debesų žemiau 1500 m ir nėra kamuolinių lietaus debesų

TAF: LRBC 270800Z 2709/2718 VRB04KT CAVOK

Orai ataskaitas ir orų prognozės (METAR, TAF).

turimą stotys yra geltonos ir raudonos taškus žemėlapyje.

Perkelti pele per norėdami pamatyti stoties vardą.

Tada spustelėkite, norėdami matyti oro stebėjimo ir prognozės.

Norėdami pakeisti žemėlapį: spustelėkite ant žalios mygtukų su juodo kryžiaus žemyn,; žalią mygtuką su brūkšneliu, jei norite nutolinti; arba žalių rodyklių gretimoms žemėlapius.


METAR-TAF: